Weather at Northeast Florida Regional Airport

Public forecast

Using degrees Fahrenheit for public forecast. Weather courtesy of forecast.io.

Current aviation weather report (METAR) for Northeast Florida Regional Airport

Retrieved 2021/10/23 13:56 UTC (25 minutes ago):

KSGJ 231356Z 33005KT 10SM CLR 23/19 A3006 RMK AO2 SLP178 T02330189

Aviation forecast (TAF) for Northeast Florida Regional Airport

Retrieved 2021/10/23 12:24 UTC (2 hours ago):

TAF KSGJ 231123Z 2312/2412 30005KT P6SM SCT040 FM231400 33008KT P6SM SCT050 FM231800 03008KT P6SM SCT050 FM232300 VRB04KT P6SM BKN250